createdAt,value
2022-07-26T00:00:35.937Z,41.27
2022-07-26T00:03:21.763Z,41.02
2022-07-26T00:06:07.775Z,41.41
2022-07-26T00:08:54.305Z,41.53
2022-07-26T00:11:40.384Z,41.46
2022-07-26T00:14:26.569Z,41.73
2022-07-26T00:17:12.823Z,41.62
2022-07-26T00:19:58.797Z,41.79
2022-07-26T00:22:44.750Z,41.91
2022-07-26T00:25:30.652Z,41.82
2022-07-26T00:28:16.739Z,41.99
2022-07-26T00:31:02.877Z,41.98
2022-07-26T00:33:49.027Z,42.17
2022-07-26T00:36:34.962Z,42.09
2022-07-26T00:39:22.400Z,42.03
2022-07-26T00:42:08.149Z,42.19
2022-07-26T00:44:54.105Z,42.32
2022-07-26T00:47:40.436Z,42.46
2022-07-26T00:50:26.479Z,42.56
2022-07-26T00:53:12.465Z,42.51
2022-07-26T00:55:58.729Z,42.59
2022-07-26T00:58:45.297Z,42.58
2022-07-26T01:01:31.425Z,42.68
2022-07-26T01:04:17.658Z,42.90
2022-07-26T01:07:14.945Z,42.78
2022-07-26T01:10:03.275Z,43.01
2022-07-26T01:12:49.539Z,43.03
2022-07-26T01:15:35.773Z,43.11
2022-07-26T01:18:21.522Z,42.93
2022-07-26T01:21:13.360Z,43.03
2022-07-26T01:24:00.270Z,43.08
2022-07-26T01:26:46.334Z,43.28
2022-07-26T01:29:34.804Z,43.47
2022-07-26T01:32:22.585Z,43.33
2022-07-26T01:35:08.832Z,43.54
2022-07-26T01:37:54.700Z,43.72
2022-07-26T01:40:40.888Z,43.54
2022-07-26T01:43:26.882Z,43.64
2022-07-26T01:46:13.912Z,43.77
2022-07-26T01:49:01.750Z,43.65
2022-07-26T01:51:47.962Z,43.58
2022-07-26T01:54:33.781Z,43.72
2022-07-26T01:57:19.701Z,43.53
2022-07-26T02:00:07.289Z,43.89
2022-07-26T02:02:53.470Z,44.13
2022-07-26T02:05:39.767Z,43.98
2022-07-26T02:08:25.693Z,44.05
2022-07-26T02:11:11.634Z,43.88
2022-07-26T02:13:57.563Z,44.25
2022-07-26T02:16:43.449Z,44.30
2022-07-26T02:19:30.522Z,44.41
2022-07-26T02:22:16.758Z,44.44
2022-07-26T02:25:05.266Z,44.44
2022-07-26T02:27:52.398Z,44.66
2022-07-26T02:30:38.380Z,44.62
2022-07-26T02:33:25.571Z,44.61
2022-07-26T02:36:11.512Z,44.68
2022-07-26T02:38:57.472Z,44.70
2022-07-26T02:41:43.365Z,44.83
2022-07-26T02:44:29.709Z,44.82
2022-07-26T02:47:15.604Z,44.76
2022-07-26T02:50:01.565Z,44.90
2022-07-26T02:52:48.363Z,44.91
2022-07-26T02:55:34.416Z,44.91
2022-07-26T02:58:25.071Z,44.83
2022-07-26T03:01:11.451Z,44.97
2022-07-26T03:03:58.579Z,45.09
2022-07-26T03:06:44.686Z,44.89
2022-07-26T03:09:30.902Z,45.12
2022-07-26T03:12:17.229Z,45.09
2022-07-26T03:15:03.310Z,45.26
2022-07-26T03:17:50.071Z,45.13
2022-07-26T03:20:36.202Z,45.15
2022-07-26T03:23:22.295Z,45.16
2022-07-26T03:26:08.964Z,45.32
2022-07-26T03:28:55.937Z,45.14
2022-07-26T03:31:41.740Z,45.44
2022-07-26T03:34:27.745Z,45.27
2022-07-26T03:37:13.702Z,45.31
2022-07-26T03:39:59.575Z,45.36
2022-07-26T03:42:47.617Z,45.52
2022-07-26T03:45:33.799Z,45.48
2022-07-26T03:51:05.864Z,45.56
2022-07-26T03:53:52.244Z,45.58
2022-07-26T03:56:38.728Z,45.42
2022-07-26T03:59:25.705Z,45.72
2022-07-26T04:02:11.903Z,45.83
2022-07-26T04:04:57.675Z,45.83
2022-07-26T04:07:49.900Z,45.84
2022-07-26T04:10:39.630Z,45.87
2022-07-26T04:13:25.562Z,45.92
2022-07-26T04:16:11.681Z,45.99
2022-07-26T04:18:58.606Z,45.98
2022-07-26T04:21:44.698Z,46.20
2022-07-26T04:24:30.534Z,46.15
2022-07-26T04:27:16.466Z,46.13
2022-07-26T04:30:02.438Z,46.26
2022-07-26T04:32:48.548Z,46.30
2022-07-26T04:35:35.007Z,46.41
2022-07-26T04:38:20.875Z,46.42
2022-07-26T04:41:06.955Z,46.52
2022-07-26T04:43:53.228Z,46.48
2022-07-26T04:46:39.076Z,46.52
2022-07-26T04:49:30.896Z,46.66
2022-07-26T04:52:17.031Z,46.72
2022-07-26T04:55:04.189Z,46.77
2022-07-26T04:57:50.994Z,46.74
2022-07-26T05:01:02.760Z,46.94
2022-07-26T05:03:44.054Z,46.86
2022-07-26T05:06:29.981Z,46.72
2022-07-26T05:09:16.026Z,46.87
2022-07-26T05:12:02.087Z,46.98
2022-07-26T05:14:48.013Z,47.13
2022-07-26T05:17:35.482Z,46.98
2022-07-26T05:20:22.075Z,46.99
2022-07-26T05:23:08.245Z,46.93
2022-07-26T05:25:55.416Z,46.82
2022-07-26T05:28:41.900Z,46.81
2022-07-26T05:31:28.282Z,46.91
